createdAt,value
2023-02-17T00:00:16.990Z,98.88
2023-02-17T00:05:24.592Z,98.92
2023-02-17T00:10:29.445Z,99.28
2023-02-17T00:15:34.759Z,99.26
2023-02-17T00:20:44.224Z,99.72
2023-02-17T00:25:49.184Z,100.00
2023-02-17T00:30:54.337Z,99.49
2023-02-17T00:36:02.020Z,98.71
2023-02-17T00:41:08.651Z,98.67
2023-02-17T00:46:13.684Z,99.01
2023-02-17T00:51:22.397Z,98.98
2023-02-17T00:56:27.305Z,98.41
2023-02-17T01:01:32.550Z,98.39
2023-02-17T01:06:41.829Z,99.91
2023-02-17T01:11:46.853Z,99.79
2023-02-17T01:16:52.215Z,100.00
2023-02-17T01:22:01.337Z,100.00
2023-02-17T01:27:06.555Z,100.00
2023-02-17T01:32:11.789Z,99.22
2023-02-17T01:37:19.287Z,99.01
2023-02-17T01:42:24.214Z,99.13
2023-02-17T01:47:29.116Z,98.69
2023-02-17T01:52:36.849Z,98.67
2023-02-17T01:57:44.144Z,98.45
2023-02-17T02:02:51.744Z,98.44
2023-02-17T02:08:00.684Z,98.54
2023-02-17T02:13:06.655Z,97.39
2023-02-17T02:18:34.722Z,98.07
2023-02-17T02:24:12.643Z,98.58
2023-02-17T02:29:33.624Z,99.75
2023-02-17T02:34:47.380Z,100.00
2023-02-17T02:39:55.949Z,100.00
2023-02-17T02:45:01.103Z,100.00
2023-02-17T02:50:09.671Z,100.00
2023-02-17T02:55:21.879Z,100.00
2023-02-17T03:00:33.323Z,100.00
2023-02-17T03:05:52.681Z,100.00
2023-02-17T03:10:58.253Z,100.00
2023-02-17T03:16:04.150Z,100.00
2023-02-17T03:21:17.754Z,100.00
2023-02-17T03:26:22.805Z,100.00
2023-02-17T03:31:30.770Z,100.00
2023-02-17T03:36:38.797Z,100.00
2023-02-17T03:41:43.673Z,100.00
2023-02-17T03:46:48.743Z,100.00
2023-02-17T03:51:56.352Z,100.00
2023-02-17T03:57:01.564Z,100.00
2023-02-17T04:02:06.957Z,100.00
2023-02-17T04:07:14.564Z,100.00
2023-02-17T04:12:19.454Z,100.00
2023-02-17T04:17:24.704Z,100.00
2023-02-17T04:22:32.350Z,100.00
2023-02-17T04:27:37.542Z,100.00
2023-02-17T04:32:44.101Z,100.00
2023-02-17T04:37:51.707Z,100.00
2023-02-17T04:42:56.664Z,100.00
2023-02-17T04:48:01.787Z,100.00
2023-02-17T04:53:09.866Z,100.00
2023-02-17T04:58:14.926Z,100.00
2023-02-17T05:03:20.481Z,100.00
2023-02-17T05:08:30.272Z,100.00
2023-02-17T05:13:35.455Z,100.00
2023-02-17T05:18:41.986Z,100.00
2023-02-17T05:23:49.505Z,100.00
2023-02-17T05:28:54.520Z,100.00
2023-02-17T05:33:59.504Z,100.00
2023-02-17T05:39:09.085Z,100.00
2023-02-17T05:44:14.347Z,100.00
2023-02-17T05:49:19.439Z,100.00
2023-02-17T05:54:27.114Z,100.00
2023-02-17T05:59:31.992Z,100.00
2023-02-17T06:04:37.028Z,100.00
2023-02-17T06:09:47.411Z,100.00
2023-02-17T06:14:55.237Z,100.00
2023-02-17T06:20:00.482Z,100.00
2023-02-17T06:25:08.482Z,100.00
2023-02-17T06:30:15.079Z,100.00
2023-02-17T06:35:21.272Z,100.00
2023-02-17T06:40:28.996Z,100.00
2023-02-17T06:45:36.032Z,100.00
2023-02-17T06:50:45.930Z,100.00
2023-02-17T06:56:07.381Z,100.00
2023-02-17T07:01:20.563Z,100.00
2023-02-17T07:06:30.329Z,100.00
2023-02-17T07:11:38.164Z,100.00
2023-02-17T07:16:46.164Z,100.00
2023-02-17T07:22:08.023Z,100.00
2023-02-17T07:27:16.088Z,100.00
2023-02-17T07:32:21.072Z,100.00
2023-02-17T07:37:26.020Z,100.00
2023-02-17T07:42:33.772Z,100.00
2023-02-17T07:47:38.872Z,100.00
2023-02-17T07:52:44.069Z,100.00
2023-02-17T07:57:52.072Z,100.00
2023-02-17T08:02:57.000Z,100.00
2023-02-17T08:08:29.434Z,100.00
2023-02-17T08:13:37.379Z,100.00
2023-02-17T08:18:42.419Z,100.00
2023-02-17T08:23:47.430Z,100.00
2023-02-17T08:28:55.219Z,100.00
2023-02-17T08:34:02.685Z,100.00
2023-02-17T08:39:08.331Z,100.00
2023-02-17T08:44:17.854Z,100.00
2023-02-17T08:49:25.089Z,100.00
2023-02-17T08:54:30.590Z,100.00
2023-02-17T08:59:38.416Z,100.00
2023-02-17T09:04:43.868Z,100.00
2023-02-17T09:09:49.011Z,100.00
2023-02-17T09:14:56.889Z,100.00
2023-02-17T09:20:02.173Z,100.00
2023-02-17T09:25:11.150Z,100.00
2023-02-17T09:30:19.523Z,100.00
2023-02-17T09:35:24.551Z,100.00
2023-02-17T09:40:40.741Z,100.00
2023-02-17T09:45:53.707Z,100.00
2023-02-17T09:51:03.410Z,100.00
2023-02-17T09:56:16.194Z,100.00
2023-02-17T10:01:28.931Z,100.00
2023-02-17T10:06:37.643Z,100.00
2023-02-17T10:11:47.066Z,100.00
2023-02-17T10:17:03.226Z,100.00
2023-02-17T10:22:14.178Z,100.00
2023-02-17T10:27:39.469Z,100.00
2023-02-17T10:32:59.743Z,100.00
2023-02-17T10:38:15.487Z,100.00
2023-02-17T10:43:29.524Z,100.00
2023-02-17T10:48:49.023Z,100.00
2023-02-17T10:53:59.502Z,100.00
2023-02-17T10:59:09.398Z,100.00
2023-02-17T11:04:17.060Z,100.00
2023-02-17T11:09:30.857Z,100.00
2023-02-17T11:14:40.488Z,100.00
2023-02-17T11:19:57.964Z,100.00
2023-02-17T11:25:07.142Z,100.00
2023-02-17T11:30:18.916Z,100.00
2023-02-17T11:35:31.265Z,100.00
2023-02-17T11:40:37.993Z,100.00
2023-02-17T11:45:48.547Z,100.00
2023-02-17T11:51:05.513Z,100.00
2023-02-17T11:56:54.672Z,100.00
2023-02-17T12:02:37.417Z,100.00
2023-02-17T12:08:08.248Z,100.00
2023-02-17T12:13:35.624Z,100.00
2023-02-17T12:18:52.979Z,100.00
2023-02-17T12:24:35.496Z,100.00
2023-02-17T12:30:01.892Z,100.00
2023-02-17T12:35:17.492Z,100.00
2023-02-17T12:40:37.824Z,100.00
2023-02-17T12:45:51.576Z,100.00
2023-02-17T12:51:05.846Z,100.00
2023-02-17T12:56:33.156Z,100.00
2023-02-17T13:01:51.524Z,100.00
2023-02-17T13:07:15.849Z,100.00
2023-02-17T13:12:41.563Z,100.00
2023-02-17T13:18:03.788Z,100.00
2023-02-17T13:23:11.878Z,100.00
2023-02-17T13:28:33.618Z,100.00
2023-02-17T13:33:48.995Z,100.00
2023-02-17T13:39:03.283Z,100.00
2023-02-17T13:44:30.290Z,100.00
2023-02-17T13:49:40.346Z,100.00
2023-02-17T13:54:54.491Z,100.00
2023-02-17T14:00:35.019Z,100.00
2023-02-17T14:05:49.317Z,100.00
2023-02-17T14:11:09.285Z,100.00
2023-02-17T14:16:30.875Z,100.00
2023-02-17T14:21:40.165Z,100.00
2023-02-17T14:26:50.083Z,100.00
2023-02-17T14:31:57.626Z,100.00
2023-02-17T14:37:14.124Z,100.00
2023-02-17T14:42:19.599Z,100.00
2023-02-17T14:47:24.658Z,100.00
2023-02-17T14:52:33.209Z,100.00
2023-02-17T14:57:38.169Z,100.00
2023-02-17T15:02:43.127Z,100.00
2023-02-17T15:07:53.342Z,100.00
2023-02-17T15:13:02.360Z,100.00
2023-02-17T15:18:07.521Z,100.00
2023-02-17T15:23:18.112Z,100.00
2023-02-17T15:28:23.792Z,100.00
2023-02-17T15:33:28.824Z,100.00
2023-02-17T15:38:36.483Z,100.00
2023-02-17T15:43:43.914Z,100.00
2023-02-17T15:48:52.373Z,100.00
2023-02-17T15:54:02.530Z,100.00
2023-02-17T15:59:17.642Z,100.00
2023-02-17T16:04:22.962Z,100.00
2023-02-17T16:09:30.752Z,100.00
2023-02-17T16:14:38.480Z,100.00
2023-02-17T16:19:43.572Z,100.00
2023-02-17T16:24:51.199Z,100.00
2023-02-17T16:29:56.228Z,100.00
2023-02-17T16:35:01.397Z,100.00
2023-02-17T16:40:19.074Z,100.00
2023-02-17T16:45:28.154Z,100.00
2023-02-17T16:50:35.390Z,100.00
2023-02-17T16:55:43.535Z,100.00
2023-02-17T17:00:52.313Z,100.00
2023-02-17T17:05:57.942Z,100.00
2023-02-17T17:11:05.417Z,100.00
2023-02-17T17:16:15.013Z,100.00
2023-02-17T17:21:22.110Z,100.00
2023-02-17T17:26:33.836Z,100.00
2023-02-17T17:31:40.062Z,100.00
2023-02-17T17:36:48.164Z,100.00
2023-02-17T17:41:57.523Z,100.00
2023-02-17T17:47:02.461Z,100.00
2023-02-17T17:52:08.561Z,100.00
2023-02-17T17:57:16.158Z,100.00
2023-02-17T18:02:21.104Z,100.00
2023-02-17T18:07:26.262Z,100.00
2023-02-17T18:12:35.586Z,100.00
2023-02-17T18:17:45.500Z,100.00
2023-02-17T18:22:50.760Z,100.00
2023-02-17T18:28:01.058Z,100.00
2023-02-17T18:33:06.931Z,100.00
2023-02-17T18:38:12.538Z,100.00
2023-02-17T18:43:22.964Z,100.00
2023-02-17T18:48:28.354Z,100.00
2023-02-17T18:53:33.412Z,100.00
2023-02-17T18:58:41.053Z,100.00
2023-02-17T19:03:46.638Z,100.00
2023-02-17T19:08:52.560Z,100.00
2023-02-17T19:14:00.523Z,100.00
2023-02-17T19:19:06.238Z,100.00
2023-02-17T19:24:14.979Z,100.00
2023-02-17T19:29:22.974Z,100.00
2023-02-17T19:34:28.413Z,100.00
2023-02-17T19:39:39.646Z,100.00
2023-02-17T19:44:47.565Z,100.00
2023-02-17T19:49:52.531Z,100.00
2023-02-17T19:54:57.563Z,100.00
2023-02-17T20:00:05.345Z,100.00
2023-02-17T20:05:11.976Z,100.00
2023-02-17T20:10:20.516Z,100.00
2023-02-17T20:15:28.474Z,100.00
2023-02-17T20:20:34.593Z,100.00
2023-02-17T20:25:43.510Z,100.00
2023-02-17T20:30:53.780Z,100.00
2023-02-17T20:35:58.923Z,100.00
2023-02-17T20:41:05.251Z,100.00
2023-02-17T20:46:16.126Z,100.00
2023-02-17T20:51:22.067Z,100.00
2023-02-17T20:56:36.307Z,100.00
2023-02-17T21:01:46.010Z,100.00
2023-02-17T21:06:51.859Z,100.00
2023-02-17T21:11:56.789Z,100.00
2023-02-17T21:17:04.307Z,100.00
2023-02-17T21:22:10.932Z,100.00
2023-02-17T21:27:15.870Z,100.00
2023-02-17T21:32:23.603Z,100.00
2023-02-17T21:37:28.690Z,100.00
2023-02-17T21:42:46.246Z,100.00
2023-02-17T21:47:56.488Z,100.00
2023-02-17T21:53:01.428Z,100.00
2023-02-17T21:58:06.371Z,100.00
2023-02-17T22:03:14.050Z,100.00
2023-02-17T22:08:21.037Z,100.00
2023-02-17T22:13:26.120Z,100.00
2023-02-17T22:18:33.724Z,100.00
2023-02-17T22:23:39.529Z,100.00
2023-02-17T22:28:44.657Z,100.00
2023-02-17T22:33:54.163Z,100.00
2023-02-17T22:38:59.121Z,100.00
2023-02-17T22:44:06.649Z,100.00
2023-02-17T22:49:14.393Z,100.00
2023-02-17T22:54:19.327Z,100.00
2023-02-17T22:59:24.659Z,100.00
2023-02-17T23:04:32.716Z,100.00
2023-02-17T23:09:37.929Z,100.00
2023-02-17T23:14:46.755Z,100.00
2023-02-17T23:19:54.404Z,100.00
2023-02-17T23:25:00.453Z,100.00
2023-02-17T23:30:10.639Z,100.00
2023-02-17T23:35:19.193Z,100.00
2023-02-17T23:40:24.851Z,100.00
2023-02-17T23:45:29.818Z,100.00
2023-02-17T23:50:39.309Z,100.00
2023-02-17T23:55:44.472Z,100.00
